Terminal Aerodrome Forecast
Issued by NWS Pendleton, OR

Home | Current Version | Previous Version | Text Only | Print | Product List | Glossary On
Versions: 1 2 3 4 5 6 7 8 9 10 11 12 13 14 15 16 17 18 19 20 21 22 23 24
296
FTUS46 KPDT 150540
TAFPDT
TAF
KPDT 150540Z 1506/1606 VRB06KT P6SM OVC006
      TEMPO 1506/1510 5SM BR OVC004
     FM151000 VRB06KT 2SM BR OVC002
     FM151400 17003KT 3SM BR OVC003
     FM152000 29005KT 4SM -FZRA BR BKN006 OVC025
     FM160200 28010KT P6SM SCT030 BKN050=

USA.gov is the U.S. government's official web portal to all federal, state and local government web resources and services.